sensor_id;sensor_type;location;lat;lon;timestamp;temperature;humidity
31455;DHT22;18084;53.028;8.834;2023-07-13T00:02:59;15.10;99.90
31455;DHT22;18084;53.028;8.834;2023-07-13T00:05:24;15.00;99.90
31455;DHT22;18084;53.028;8.834;2023-07-13T00:15:16;15.00;99.90
31455;DHT22;18084;53.028;8.834;2023-07-13T00:17:42;15.00;99.90
31455;DHT22;18084;53.028;8.834;2023-07-13T00:22:37;14.90;99.90
31455;DHT22;18084;53.028;8.834;2023-07-13T00:25:03;16.40;99.90
31455;DHT22;18084;53.028;8.834;2023-07-13T00:27:29;14.90;99.90
31455;DHT22;18084;53.028;8.834;2023-07-13T00:29:57;15.10;99.90
31455;DHT22;18084;53.028;8.834;2023-07-13T00:32:22;14.40;99.90
31455;DHT22;18084;53.028;8.834;2023-07-13T00:34:51;17.70;99.90
31455;DHT22;18084;53.028;8.834;2023-07-13T00:37:16;16.90;99.90
31455;DHT22;18084;53.028;8.834;2023-07-13T00:39:42;14.40;99.90
31455;DHT22;18084;53.028;8.834;2023-07-13T00:42:08;14.10;99.90
31455;DHT22;18084;53.028;8.834;2023-07-13T00:44:34;14.90;99.90
31455;DHT22;18084;53.028;8.834;2023-07-13T00:46:59;14.60;99.90
31455;DHT22;18084;53.028;8.834;2023-07-13T00:49:25;17.50;99.90
31455;DHT22;18084;53.028;8.834;2023-07-13T00:52:12;16.50;99.90
31455;DHT22;18084;53.028;8.834;2023-07-13T00:54:44;15.00;99.90
31455;DHT22;18084;53.028;8.834;2023-07-13T00:57:14;14.90;99.90
31455;DHT22;18084;53.028;8.834;2023-07-13T00:59:42;14.80;99.90
31455;DHT22;18084;53.028;8.834;2023-07-13T01:07:05;14.80;99.90
31455;DHT22;18084;53.028;8.834;2023-07-13T01:12:00;14.70;99.90
31455;DHT22;18084;53.028;8.834;2023-07-13T01:16:53;14.70;99.90
31455;DHT22;18084;53.028;8.834;2023-07-13T01:26:53;14.70;99.90
31455;DHT22;18084;53.028;8.834;2023-07-13T01:34:11;14.70;99.90
31455;DHT22;18084;53.028;8.834;2023-07-13T01:39:02;14.70;99.90
31455;DHT22;18084;53.028;8.834;2023-07-13T01:41:28;16.10;99.90
31455;DHT22;18084;53.028;8.834;2023-07-13T01:43:54;17.10;99.90
31455;DHT22;18084;53.028;8.834;2023-07-13T01:48:45;14.70;99.90
31455;DHT22;18084;53.028;8.834;2023-07-13T01:56:03;14.70;99.90
31455;DHT22;18084;53.028;8.834;2023-07-13T02:00:55;14.70;99.90
31455;DHT22;18084;53.028;8.834;2023-07-13T02:03:20;15.30;99.90
31455;DHT22;18084;53.028;8.834;2023-07-13T02:05:46;14.20;99.90
31455;DHT22;18084;53.028;8.834;2023-07-13T02:15:37;14.80;99.90
31455;DHT22;18084;53.028;8.834;2023-07-13T02:20:29;14.70;99.90
31455;DHT22;18084;53.028;8.834;2023-07-13T02:25:20;14.70;99.90
31455;DHT22;18084;53.028;8.834;2023-07-13T02:27:46;14.60;99.90
31455;DHT22;18084;53.028;8.834;2023-07-13T02:30:11;17.60;99.90
31455;DHT22;18084;53.028;8.834;2023-07-13T02:35:03;14.50;99.90
31455;DHT22;18084;53.028;8.834;2023-07-13T02:37:29;14.50;99.90
31455;DHT22;18084;53.028;8.834;2023-07-13T02:39:55;15.80;99.90
31455;DHT22;18084;53.028;8.834;2023-07-13T02:42:20;14.60;99.90
31455;DHT22;18084;53.028;8.834;2023-07-13T02:44:46;14.00;99.90
31455;DHT22;18084;53.028;8.834;2023-07-13T02:47:14;15.70;99.90
31455;DHT22;18084;53.028;8.834;2023-07-13T02:49:40;14.40;99.90
31455;DHT22;18084;53.028;8.834;2023-07-13T02:52:06;17.50;99.90
31455;DHT22;18084;53.028;8.834;2023-07-13T02:54:31;15.30;99.90
31455;DHT22;18084;53.028;8.834;2023-07-13T02:56:57;12.90;99.90
31455;DHT22;18084;53.028;8.834;2023-07-13T03:01:52;14.30;99.90
31455;DHT22;18084;53.028;8.834;2023-07-13T03:04:17;13.90;99.90
31455;DHT22;18084;53.028;8.834;2023-07-13T03:06:45;15.70;99.90
31455;DHT22;18084;53.028;8.834;2023-07-13T03:09:11;15.70;99.90
31455;DHT22;18084;53.028;8.834;2023-07-13T03:16:30;14.40;99.90
31455;DHT22;18084;53.028;8.834;2023-07-13T03:21:21;14.40;99.90
31455;DHT22;18084;53.028;8.834;2023-07-13T03:26:14;14.40;99.90
31455;DHT22;18084;53.028;8.834;2023-07-13T03:31:08;14.50;99.90
31455;DHT22;18084;53.028;8.834;2023-07-13T03:36:00;14.60;99.90
31455;DHT22;18084;53.028;8.834;2023-07-13T03:38:26;15.20;99.90
31455;DHT22;18084;53.028;8.834;2023-07-13T03:40:52;16.90;99.90
31455;DHT22;18084;53.028;8.834;2023-07-13T03:45:45;14.80;99.90
31455;DHT22;18084;53.028;8.834;2023-07-13T03:48:11;17.10;99.90
31455;DHT22;18084;53.028;8.834;2023-07-13T03:50:37;14.80;99.90
31455;DHT22;18084;53.028;8.834;2023-07-13T03:55:29;15.00;99.90
31455;DHT22;18084;53.028;8.834;2023-07-13T03:57:59;15.00;99.90
31455;DHT22;18084;53.028;8.834;2023-07-13T04:00:25;14.50;99.90
31455;DHT22;18084;53.028;8.834;2023-07-13T04:02:51;15.00;99.90
31455;DHT22;18084;53.028;8.834;2023-07-13T04:05:16;14.30;99.90
31455;DHT22;18084;53.028;8.834;2023-07-13T04:07:42;15.10;99.90
31455;DHT22;18084;53.028;8.834;2023-07-13T04:10:08;15.10;99.90
31455;DHT22;18084;53.028;8.834;2023-07-13T04:12:34;15.20;99.90
31455;DHT22;18084;53.028;8.834;2023-07-13T04:15:00;15.10;99.90
31455;DHT22;18084;53.028;8.834;2023-07-13T04:19:51;15.20;99.90
31455;DHT22;18084;53.028;8.834;2023-07-13T04:24:42;15.20;99.90
31455;DHT22;18084;53.028;8.834;2023-07-13T04:29:35;15.30;99.90
31455;DHT22;18084;53.028;8.834;2023-07-13T04:34:26;15.40;99.90
31455;DHT22;18084;53.028;8.834;2023-07-13T04:36:54;15.40;99.90
31455;DHT22;18084;53.028;8.834;2023-07-13T04:44:12;15.40;99.90
31455;DHT22;18084;53.028;8.834;2023-07-13T04:46:38;17.40;99.90
31455;DHT22;18084;53.028;8.834;2023-07-13T04:49:03;14.70;99.90
31455;DHT22;18084;53.028;8.834;2023-07-13T04:56:21;15.50;99.90
31455;DHT22;18084;53.028;8.834;2023-07-13T05:01:12;15.60;99.90
31455;DHT22;18084;53.028;8.834;2023-07-13T05:06:05;15.70;99.90
31455;DHT22;18084;53.028;8.834;2023-07-13T05:10:59;15.80;99.90
31455;DHT22;18084;53.028;8.834;2023-07-13T05:13:25;15.60;99.90
31455;DHT22;18084;53.028;8.834;2023-07-13T05:16:00;16.30;99.90
31455;DHT22;18084;53.028;8.834;2023-07-13T05:21:04;15.90;99.90
31455;DHT22;18084;53.028;8.834;2023-07-13T05:23:31;16.00;99.90
31455;DHT22;18084;53.028;8.834;2023-07-13T05:30:49;16.10;99.90
31455;DHT22;18084;53.028;8.834;2023-07-13T05:33:18;18.00;99.90
31455;DHT22;18084;53.028;8.834;2023-07-13T05:38:09;16.30;99.90
31455;DHT22;18084;53.028;8.834;2023-07-13T05:40:35;20.00;99.90
31455;DHT22;18084;53.028;8.834;2023-07-13T05:45:26;16.40;99.90
31455;DHT22;18084;53.028;8.834;2023-07-13T05:47:55;16.40;99.90
31455;DHT22;18084;53.028;8.834;2023-07-13T05:52:47;16.40;99.90
31455;DHT22;18084;53.028;8.834;2023-07-13T05:55:13;16.40;99.90
31455;DHT22;18084;53.028;8.834;2023-07-13T05:57:38;16.40;99.90
31455;DHT22;18084;53.028;8.834;2023-07-13T06:00:04;18.00;99.90
31455;DHT22;18084;53.028;8.834;2023-07-13T06:02:30;16.30;99.90
31455;DHT22;18084;53.028;8.834;2023-07-13T06:04:56;16.80;99.90
31455;DHT22;18084;53.028;8.834;2023-07-13T06:26:50;19.80;1.00
31455;DHT22;18084;53.028;8.834;2023-07-13T06:56:10;21.30;99.90
31455;DHT22;18084;53.028;8.834;2023-07-13T06:58:36;21.20;99.90
31455;DHT22;18084;53.028;8.834;2023-07-13T07:06:19;21.90;99.90
31455;DHT22;18084;53.028;8.834;2023-07-13T07:11:17;22.30;1.00
31455;DHT22;18084;53.028;8.834;2023-07-13T07:16:09;22.70;99.90
31455;DHT22;18084;53.028;8.834;2023-07-13T07:18:35;25.90;1.00
31455;DHT22;18084;53.028;8.834;2023-07-13T07:21:02;23.10;99.90
31455;DHT22;18084;53.028;8.834;2023-07-13T07:28:20;22.90;75.60
31455;DHT22;18084;53.028;8.834;2023-07-13T07:30:47;23.30;99.90
31455;DHT22;18084;53.028;8.834;2023-07-13T07:33:14;23.20;99.90
31455;DHT22;18084;53.028;8.834;2023-07-13T07:35:40;23.20;99.90
31455;DHT22;18084;53.028;8.834;2023-07-13T07:40:37;23.80;99.90
31455;DHT22;18084;53.028;8.834;2023-07-13T07:45:28;23.20;99.90
31455;DHT22;18084;53.028;8.834;2023-07-13T07:55:16;23.00;99.90
31455;DHT22;18084;53.028;8.834;2023-07-13T08:00:08;23.80;99.90
31455;DHT22;18084;53.028;8.834;2023-07-13T08:02:34;23.40;99.90
31455;DHT22;18084;53.028;8.834;2023-07-13T08:04:59;23.70;99.90
31455;DHT22;18084;53.028;8.834;2023-07-13T08:07:25;25.10;1.00
31455;DHT22;18084;53.028;8.834;2023-07-13T08:09:54;24.60;99.90
31455;DHT22;18084;53.028;8.834;2023-07-13T08:14:52;22.90;1.00
31455;DHT22;18084;53.028;8.834;2023-07-13T08:22:18;23.20;11.80
31455;DHT22;18084;53.028;8.834;2023-07-13T08:29:39;22.80;99.90
31455;DHT22;18084;53.028;8.834;2023-07-13T08:34:35;22.80;1.00
31455;DHT22;18084;53.028;8.834;2023-07-13T08:37:02;23.60;99.90
31455;DHT22;18084;53.028;8.834;2023-07-13T08:42:01;24.00;99.90
31455;DHT22;18084;53.028;8.834;2023-07-13T08:47:34;23.40;99.90
31455;DHT22;18084;53.028;8.834;2023-07-13T08:50:02;23.30;99.90
31455;DHT22;18084;53.028;8.834;2023-07-13T08:54:58;22.70;99.90
31455;DHT22;18084;53.028;8.834;2023-07-13T08:57:32;22.90;99.90
31455;DHT22;18084;53.028;8.834;2023-07-13T09:02:45;23.30;99.90
31455;DHT22;18084;53.028;8.834;2023-07-13T09:05:30;23.30;1.00
31455;DHT22;18084;53.028;8.834;2023-07-13T09:14:06;24.60;99.90
31455;DHT22;18084;53.028;8.834;2023-07-13T09:16:36;24.80;43.70
31455;DHT22;18084;53.028;8.834;2023-07-13T09:19:07;24.60;27.40
31455;DHT22;18084;53.028;8.834;2023-07-13T09:21:39;24.60;99.90
31455;DHT22;18084;53.028;8.834;2023-07-13T09:24:35;26.10;99.90
31455;DHT22;18084;53.028;8.834;2023-07-13T09:27:17;24.20;99.90
31455;DHT22;18084;53.028;8.834;2023-07-13T09:29:49;23.70;99.90
31455;DHT22;18084;53.028;8.834;2023-07-13T09:32:18;23.70;63.90
31455;DHT22;18084;53.028;8.834;2023-07-13T09:34:51;24.00;1.00
31455;DHT22;18084;53.028;8.834;2023-07-13T09:37:17;23.70;1.00
31455;DHT22;18084;53.028;8.834;2023-07-13T09:39:44;23.90;99.90
31455;DHT22;18084;53.028;8.834;2023-07-13T09:44:59;23.50;34.70
31455;DHT22;18084;53.028;8.834;2023-07-13T09:47:31;23.60;1.00
31455;DHT22;18084;53.028;8.834;2023-07-13T09:50:06;23.60;99.90
31455;DHT22;18084;53.028;8.834;2023-07-13T09:52:44;23.60;99.90
31455;DHT22;18084;53.028;8.834;2023-07-13T09:55:28;23.80;99.90
31455;DHT22;18084;53.028;8.834;2023-07-13T09:57:54;23.50;99.90
31455;DHT22;18084;53.028;8.834;2023-07-13T10:00:22;23.10;99.90
31455;DHT22;18084;53.028;8.834;2023-07-13T10:03:17;22.90;1.00
31455;DHT22;18084;53.028;8.834;2023-07-13T10:05:45;22.70;99.90
31455;DHT22;18084;53.028;8.834;2023-07-13T10:08:26;22.70;23.60
31455;DHT22;18084;53.028;8.834;2023-07-13T10:11:01;23.00;56.40
31455;DHT22;18084;53.028;8.834;2023-07-13T10:16:17;23.30;1.00
31455;DHT22;18084;53.028;8.834;2023-07-13T10:18:47;22.80;99.90
31455;DHT22;18084;53.028;8.834;2023-07-13T10:21:19;23.10;1.00
31455;DHT22;18084;53.028;8.834;2023-07-13T10:23:51;22.40;1.00
31455;DHT22;18084;53.028;8.834;2023-07-13T10:26:31;22.40;99.90
31455;DHT22;18084;53.028;8.834;2023-07-13T10:29:02;22.30;99.90
31455;DHT22;18084;53.028;8.834;2023-07-13T10:31:31;22.60;1.00
31455;DHT22;18084;53.028;8.834;2023-07-13T10:33:56;22.60;99.90
31455;DHT22;18084;53.028;8.834;2023-07-13T10:36:38;22.70;1.00
31455;DHT22;18084;53.028;8.834;2023-07-13T10:39:06;22.90;99.90
31455;DHT22;18084;53.028;8.834;2023-07-13T10:41:37;22.80;8.90
31455;DHT22;18084;53.028;8.834;2023-07-13T10:44:04;22.50;99.90
31455;DHT22;18084;53.028;8.834;2023-07-13T10:46:32;22.30;99.90
31455;DHT22;18084;53.028;8.834;2023-07-13T10:49:05;21.80;1.00
31455;DHT22;18084;53.028;8.834;2023-07-13T10:51:33;21.60;99.90
31455;DHT22;18084;53.028;8.834;2023-07-13T10:54:19;21.20;99.90
31455;DHT22;18084;53.028;8.834;2023-07-13T10:56:49;21.00;99.90
31455;DHT22;18084;53.028;8.834;2023-07-13T10:59:18;20.80;99.90
31455;DHT22;18084;53.028;8.834;2023-07-13T11:04:22;20.60;99.90
31455;DHT22;18084;53.028;8.834;2023-07-13T11:06:52;20.60;48.20
31455;DHT22;18084;53.028;8.834;2023-07-13T11:11:44;20.00;1.00
31455;DHT22;18084;53.028;8.834;2023-07-13T11:14:30;19.40;51.10
31455;DHT22;18084;53.028;8.834;2023-07-13T11:16:56;18.50;92.90
31455;DHT22;18084;53.028;8.834;2023-07-13T11:24:50;17.70;99.90
31455;DHT22;18084;53.028;8.834;2023-07-13T11:27:22;17.70;99.90
31455;DHT22;18084;53.028;8.834;2023-07-13T11:29:48;17.50;99.90
31455;DHT22;18084;53.028;8.834;2023-07-13T11:32:31;17.60;99.90
31455;DHT22;18084;53.028;8.834;2023-07-13T11:34:57;17.70;99.90
31455;DHT22;18084;53.028;8.834;2023-07-13T11:37:23;17.70;99.90
31455;DHT22;18084;53.028;8.834;2023-07-13T11:39:51;17.60;99.90
31455;DHT22;18084;53.028;8.834;2023-07-13T11:42:18;17.60;99.90
31455;DHT22;18084;53.028;8.834;2023-07-13T11:44:48;17.50;99.90
31455;DHT22;18084;53.028;8.834;2023-07-13T11:47:17;17.50;99.90
31455;DHT22;18084;53.028;8.834;2023-07-13T11:49:49;17.90;54.60
31455;DHT22;18084;53.028;8.834;2023-07-13T11:52:19;17.30;58.90
31455;DHT22;18084;53.028;8.834;2023-07-13T11:54:52;17.30;70.10
31455;DHT22;18084;53.028;8.834;2023-07-13T11:57:28;17.20;43.30
31455;DHT22;18084;53.028;8.834;2023-07-13T11:59:57;17.10;10.50
31455;DHT22;18084;53.028;8.834;2023-07-13T12:02:41;16.90;6.00
31455;DHT22;18084;53.028;8.834;2023-07-13T12:05:11;16.70;25.70
31455;DHT22;18084;53.028;8.834;2023-07-13T12:07:38;16.60;54.80
31455;DHT22;18084;53.028;8.834;2023-07-13T12:12:52;16.30;95.50
31455;DHT22;18084;53.028;8.834;2023-07-13T12:15:19;16.20;99.90
31455;DHT22;18084;53.028;8.834;2023-07-13T12:17:53;16.10;99.90
31455;DHT22;18084;53.028;8.834;2023-07-13T12:20:35;16.80;99.90
31455;DHT22;18084;53.028;8.834;2023-07-13T12:23:05;15.80;99.90
31455;DHT22;18084;53.028;8.834;2023-07-13T12:25:31;15.30;99.90
31455;DHT22;18084;53.028;8.834;2023-07-13T12:27:57;15.60;99.90
31455;DHT22;18084;53.028;8.834;2023-07-13T12:30:30;15.70;99.90
31455;DHT22;18084;53.028;8.834;2023-07-13T12:33:17;15.70;99.90
31455;DHT22;18084;53.028;8.834;2023-07-13T12:35:47;15.70;99.90
31455;DHT22;18084;53.028;8.834;2023-07-13T12:38:16;15.80;99.90
31455;DHT22;18084;53.028;8.834;2023-07-13T12:40:42;15.80;99.90
31455;DHT22;18084;53.028;8.834;2023-07-13T12:43:11;15.80;99.90
31455;DHT22;18084;53.028;8.834;2023-07-13T12:45:37;15.90;99.90
31455;DHT22;18084;53.028;8.834;2023-07-13T12:48:12;15.90;99.90
31455;DHT22;18084;53.028;8.834;2023-07-13T12:50:41;16.00;99.90
31455;DHT22;18084;53.028;8.834;2023-07-13T12:53:13;16.20;99.90
31455;DHT22;18084;53.028;8.834;2023-07-13T12:55:59;16.30;99.90
31455;DHT22;18084;53.028;8.834;2023-07-13T12:58:40;16.60;99.90
31455;DHT22;18084;53.028;8.834;2023-07-13T13:01:13;16.70;99.90
31455;DHT22;18084;53.028;8.834;2023-07-13T13:03:42;16.90;99.90
31455;DHT22;18084;53.028;8.834;2023-07-13T13:08:51;17.30;99.90
31455;DHT22;18084;53.028;8.834;2023-07-13T13:11:18;17.40;60.90
31455;DHT22;18084;53.028;8.834;2023-07-13T13:13:44;17.70;60.60
31455;DHT22;18084;53.028;8.834;2023-07-13T13:16:23;18.00;62.00
31455;DHT22;18084;53.028;8.834;2023-07-13T13:18:51;18.30;42.10
31455;DHT22;18084;53.028;8.834;2023-07-13T13:21:17;18.40;29.00
31455;DHT22;18084;53.028;8.834;2023-07-13T13:23:44;18.30;1.00
31455;DHT22;18084;53.028;8.834;2023-07-13T13:26:15;18.50;24.10
31455;DHT22;18084;53.028;8.834;2023-07-13T13:28:42;18.80;42.70
31455;DHT22;18084;53.028;8.834;2023-07-13T13:31:09;19.00;1.00
31455;DHT22;18084;53.028;8.834;2023-07-13T13:33:38;19.40;1.00
31455;DHT22;18084;53.028;8.834;2023-07-13T13:36:14;19.30;99.90
31455;DHT22;18084;53.028;8.834;2023-07-13T13:38:41;19.10;99.90
31455;DHT22;18084;53.028;8.834;2023-07-13T13:41:11;19.00;1.00
31455;DHT22;18084;53.028;8.834;2023-07-13T13:43:38;19.20;99.90
31455;DHT22;18084;53.028;8.834;2023-07-13T13:46:13;19.20;1.00
31455;DHT22;18084;53.028;8.834;2023-07-13T13:48:40;19.30;1.00
31455;DHT22;18084;53.028;8.834;2023-07-13T13:51:26;19.30;99.90
31455;DHT22;18084;53.028;8.834;2023-07-13T13:53:55;19.40;99.90
31455;DHT22;18084;53.028;8.834;2023-07-13T13:56:22;19.50;99.90
31455;DHT22;18084;53.028;8.834;2023-07-13T13:58:48;19.40;99.90
31455;DHT22;18084;53.028;8.834;2023-07-13T14:01:21;19.50;99.90
31455;DHT22;18084;53.028;8.834;2023-07-13T14:03:50;19.50;99.90
31455;DHT22;18084;53.028;8.834;2023-07-13T14:06:16;19.40;99.90
31455;DHT22;18084;53.028;8.834;2023-07-13T14:08:43;19.30;99.90
31455;DHT22;18084;53.028;8.834;2023-07-13T14:11:14;19.50;99.90
31455;DHT22;18084;53.028;8.834;2023-07-13T14:13:43;19.40;99.90
31455;DHT22;18084;53.028;8.834;2023-07-13T14:16:11;19.70;99.90
31455;DHT22;18084;53.028;8.834;2023-07-13T14:18:38;19.90;99.90
31455;DHT22;18084;53.028;8.834;2023-07-13T14:21:16;19.90;99.90
31455;DHT22;18084;53.028;8.834;2023-07-13T14:23:44;19.90;99.90
31455;DHT22;18084;53.028;8.834;2023-07-13T14:26:15;20.20;99.90
31455;DHT22;18084;53.028;8.834;2023-07-13T14:28:44;20.40;99.90
31455;DHT22;18084;53.028;8.834;2023-07-13T14:31:11;20.70;99.90
31455;DHT22;18084;53.028;8.834;2023-07-13T14:33:37;20.60;99.90
31455;DHT22;18084;53.028;8.834;2023-07-13T14:36:16;20.80;99.90
31455;DHT22;18084;53.028;8.834;2023-07-13T14:38:46;20.60;1.00
31455;DHT22;18084;53.028;8.834;2023-07-13T14:41:12;20.80;99.90
31455;DHT22;18084;53.028;8.834;2023-07-13T14:43:37;20.90;1.00
31455;DHT22;18084;53.028;8.834;2023-07-13T14:46:03;20.70;1.00
31455;DHT22;18084;53.028;8.834;2023-07-13T14:48:29;21.00;99.70
31455;DHT22;18084;53.028;8.834;2023-07-13T14:50:57;20.70;99.90
31455;DHT22;18084;53.028;8.834;2023-07-13T14:53:24;20.80;80.00
31455;DHT22;18084;53.028;8.834;2023-07-13T14:55:50;20.80;92.60
31455;DHT22;18084;53.028;8.834;2023-07-13T14:58:15;20.90;99.90
31455;DHT22;18084;53.028;8.834;2023-07-13T15:00:41;21.10;99.90
31455;DHT22;18084;53.028;8.834;2023-07-13T15:03:19;21.20;1.00
31455;DHT22;18084;53.028;8.834;2023-07-13T15:05:46;21.00;1.00
31455;DHT22;18084;53.028;8.834;2023-07-13T15:08:12;21.00;1.00
31455;DHT22;18084;53.028;8.834;2023-07-13T15:10:38;21.10;99.90
31455;DHT22;18084;53.028;8.834;2023-07-13T15:13:20;21.00;90.00
31455;DHT22;18084;53.028;8.834;2023-07-13T15:15:49;20.20;99.90
31455;DHT22;18084;53.028;8.834;2023-07-13T15:18:16;21.80;99.90
31455;DHT22;18084;53.028;8.834;2023-07-13T15:20:44;21.20;99.90
31455;DHT22;18084;53.028;8.834;2023-07-13T15:23:12;20.90;1.00
31455;DHT22;18084;53.028;8.834;2023-07-13T15:25:38;20.90;99.90
31455;DHT22;18084;53.028;8.834;2023-07-13T15:28:04;20.70;99.90
31455;DHT22;18084;53.028;8.834;2023-07-13T15:30:34;22.30;36.30
31455;DHT22;18084;53.028;8.834;2023-07-13T15:33:16;21.90;1.00
31455;DHT22;18084;53.028;8.834;2023-07-13T15:35:44;19.90;99.90
31455;DHT22;18084;53.028;8.834;2023-07-13T15:38:22;19.80;63.80
31455;DHT22;18084;53.028;8.834;2023-07-13T15:40:49;19.30;1.00
31455;DHT22;18084;53.028;8.834;2023-07-13T15:43:19;19.10;99.90
31455;DHT22;18084;53.028;8.834;2023-07-13T15:45:46;18.80;99.90
31455;DHT22;18084;53.028;8.834;2023-07-13T15:48:19;18.40;99.90
31455;DHT22;18084;53.028;8.834;2023-07-13T15:50:48;17.90;99.90
31455;DHT22;18084;53.028;8.834;2023-07-13T15:53:19;17.70;1.00
31455;DHT22;18084;53.028;8.834;2023-07-13T15:55:45;18.40;8.50
31455;DHT22;18084;53.028;8.834;2023-07-13T15:58:11;17.70;13.50
31455;DHT22;18084;53.028;8.834;2023-07-13T16:00:37;17.60;2.30
31455;DHT22;18084;53.028;8.834;2023-07-13T16:03:02;17.60;48.40
31455;DHT22;18084;53.028;8.834;2023-07-13T16:05:28;17.50;22.80
31455;DHT22;18084;53.028;8.834;2023-07-13T16:07:54;17.40;24.00
31455;DHT22;18084;53.028;8.834;2023-07-13T16:10:33;17.30;52.60
31455;DHT22;18084;53.028;8.834;2023-07-13T16:13:00;17.20;53.10
31455;DHT22;18084;53.028;8.834;2023-07-13T16:15:26;17.10;99.00
31455;DHT22;18084;53.028;8.834;2023-07-13T16:17:53;16.90;99.90
31455;DHT22;18084;53.028;8.834;2023-07-13T16:20:20;16.90;99.90
31455;DHT22;18084;53.028;8.834;2023-07-13T16:22:46;16.80;99.90
31455;DHT22;18084;53.028;8.834;2023-07-13T16:25:16;16.70;99.90
31455;DHT22;18084;53.028;8.834;2023-07-13T16:27:47;16.50;99.90
31455;DHT22;18084;53.028;8.834;2023-07-13T16:30:18;16.50;99.90
31455;DHT22;18084;53.028;8.834;2023-07-13T16:32:50;16.50;99.90
31455;DHT22;18084;53.028;8.834;2023-07-13T16:35:25;16.50;99.90
31455;DHT22;18084;53.028;8.834;2023-07-13T16:37:52;16.10;99.90
31455;DHT22;18084;53.028;8.834;2023-07-13T16:40:24;16.20;99.90
31455;DHT22;18084;53.028;8.834;2023-07-13T16:42:55;16.20;99.90
31455;DHT22;18084;53.028;8.834;2023-07-13T16:45:23;16.20;99.90
31455;DHT22;18084;53.028;8.834;2023-07-13T16:47:50;16.30;99.90
31455;DHT22;18084;53.028;8.834;2023-07-13T16:50:19;16.40;99.90
31455;DHT22;18084;53.028;8.834;2023-07-13T16:52:45;16.40;99.90
31455;DHT22;18084;53.028;8.834;2023-07-13T16:55:15;16.50;99.90
31455;DHT22;18084;53.028;8.834;2023-07-13T16:58:04;16.30;99.90
31455;DHT22;18084;53.028;8.834;2023-07-13T17:00:32;19.00;99.90
31455;DHT22;18084;53.028;8.834;2023-07-13T17:03:05;16.30;99.90
31455;DHT22;18084;53.028;8.834;2023-07-13T17:05:36;16.40;99.90
31455;DHT22;18084;53.028;8.834;2023-07-13T17:08:13;16.40;99.90
31455;DHT22;18084;53.028;8.834;2023-07-13T17:10:39;16.50;99.90
31455;DHT22;18084;53.028;8.834;2023-07-13T17:13:09;16.40;99.90
31455;DHT22;18084;53.028;8.834;2023-07-13T17:15:35;16.30;99.90
31455;DHT22;18084;53.028;8.834;2023-07-13T17:18:02;16.30;99.90
31455;DHT22;18084;53.028;8.834;2023-07-13T17:20:35;16.10;99.90
31455;DHT22;18084;53.028;8.834;2023-07-13T17:23:05;16.20;99.90
31455;DHT22;18084;53.028;8.834;2023-07-13T17:25:33;16.30;99.90
31455;DHT22;18084;53.028;8.834;2023-07-13T17:28:00;16.30;99.90
31455;DHT22;18084;53.028;8.834;2023-07-13T17:30:26;16.30;99.90
31455;DHT22;18084;53.028;8.834;2023-07-13T17:32:52;16.40;99.90
31455;DHT22;18084;53.028;8.834;2023-07-13T17:35:25;16.30;99.90
31455;DHT22;18084;53.028;8.834;2023-07-13T17:37:56;16.40;99.90
31455;DHT22;18084;53.028;8.834;2023-07-13T17:40:22;16.40;99.90
31455;DHT22;18084;53.028;8.834;2023-07-13T17:42:49;16.50;99.90
31455;DHT22;18084;53.028;8.834;2023-07-13T17:45:23;16.50;99.90
31455;DHT22;18084;53.028;8.834;2023-07-13T17:47:49;16.60;99.90
31455;DHT22;18084;53.028;8.834;2023-07-13T17:50:31;16.60;99.90
31455;DHT22;18084;53.028;8.834;2023-07-13T17:55:32;16.60;99.90
31455;DHT22;18084;53.028;8.834;2023-07-13T17:57:59;16.60;99.90
31455;DHT22;18084;53.028;8.834;2023-07-13T18:00:27;16.60;99.90
31455;DHT22;18084;53.028;8.834;2023-07-13T18:03:22;16.60;99.90
31455;DHT22;18084;53.028;8.834;2023-07-13T18:06:03;16.50;99.90
31455;DHT22;18084;53.028;8.834;2023-07-13T18:08:31;16.70;99.90
31455;DHT22;18084;53.028;8.834;2023-07-13T18:10:58;16.70;99.90
31455;DHT22;18084;53.028;8.834;2023-07-13T18:13:25;16.80;99.90
31455;DHT22;18084;53.028;8.834;2023-07-13T18:15:54;16.80;99.90
31455;DHT22;18084;53.028;8.834;2023-07-13T18:18:22;16.80;99.90
31455;DHT22;18084;53.028;8.834;2023-07-13T18:20:49;16.80;99.90
31455;DHT22;18084;53.028;8.834;2023-07-13T18:23:16;16.80;99.90
31455;DHT22;18084;53.028;8.834;2023-07-13T18:25:43;16.70;99.90
31455;DHT22;18084;53.028;8.834;2023-07-13T18:28:11;16.70;99.90
31455;DHT22;18084;53.028;8.834;2023-07-13T18:30:38;16.70;99.90
31455;DHT22;18084;53.028;8.834;2023-07-13T18:33:18;16.70;99.90
31455;DHT22;18084;53.028;8.834;2023-07-13T18:35:46;16.70;99.90
31455;DHT22;18084;53.028;8.834;2023-07-13T18:38:19;16.70;99.90
31455;DHT22;18084;53.028;8.834;2023-07-13T18:43:49;16.70;99.90
31455;DHT22;18084;53.028;8.834;2023-07-13T18:56:31;16.80;99.90
31455;DHT22;18084;53.028;8.834;2023-07-13T18:59:33;16.50;99.90
31455;DHT22;18084;53.028;8.834;2023-07-13T19:07:09;16.70;99.90
31455;DHT22;18084;53.028;8.834;2023-07-13T19:12:17;16.70;99.90
31455;DHT22;18084;53.028;8.834;2023-07-13T19:14:48;16.70;99.90
31455;DHT22;18084;53.028;8.834;2023-07-13T19:22:12;16.60;99.90
31455;DHT22;18084;53.028;8.834;2023-07-13T19:34:33;16.70;99.90
31455;DHT22;18084;53.028;8.834;2023-07-13T19:37:02;16.50;99.90
31455;DHT22;18084;53.028;8.834;2023-07-13T19:39:39;16.50;99.90
31455;DHT22;18084;53.028;8.834;2023-07-13T19:44:59;16.40;99.90
31455;DHT22;18084;53.028;8.834;2023-07-13T19:49:52;16.30;99.90
31455;DHT22;18084;53.028;8.834;2023-07-13T19:52:29;16.30;99.90
31455;DHT22;18084;53.028;8.834;2023-07-13T19:54:58;16.20;99.90
31455;DHT22;18084;53.028;8.834;2023-07-13T19:57:26;16.10;99.90
31455;DHT22;18084;53.028;8.834;2023-07-13T20:02:21;16.00;99.90
31455;DHT22;18084;53.028;8.834;2023-07-13T20:04:48;15.90;99.90
31455;DHT22;18084;53.028;8.834;2023-07-13T20:07:17;16.00;99.90
31455;DHT22;18084;53.028;8.834;2023-07-13T20:13:08;15.90;99.90
31455;DHT22;18084;53.028;8.834;2023-07-13T20:15:49;18.10;99.90
31455;DHT22;18084;53.028;8.834;2023-07-13T20:18:16;15.70;99.90
31455;DHT22;18084;53.028;8.834;2023-07-13T20:20:44;14.60;99.90
31455;DHT22;18084;53.028;8.834;2023-07-13T20:23:17;15.50;99.90
31455;DHT22;18084;53.028;8.834;2023-07-13T20:25:45;15.60;99.90
31455;DHT22;18084;53.028;8.834;2023-07-13T20:30:47;15.50;99.90
31455;DHT22;18084;53.028;8.834;2023-07-13T20:33:30;16.40;99.90
31455;DHT22;18084;53.028;8.834;2023-07-13T20:36:02;15.30;99.90
31455;DHT22;18084;53.028;8.834;2023-07-13T20:40:54;15.20;99.90
31455;DHT22;18084;53.028;8.834;2023-07-13T20:45:48;15.20;99.90
31455;DHT22;18084;53.028;8.834;2023-07-13T20:48:38;17.50;99.90
31455;DHT22;18084;53.028;8.834;2023-07-13T20:51:05;15.10;99.90
31455;DHT22;18084;53.028;8.834;2023-07-13T20:58:24;15.00;99.90
31455;DHT22;18084;53.028;8.834;2023-07-13T21:00:52;15.40;99.90